Flight Track Log - Related Links

Times and Time Zones

All times are in EDT time to prevent confusion due to time zone crossing. See the EJA587P flight status page for this flight to view local times or setup timezone preferences in your user account.

Time Position Orientation Groundspeed Altitude Reporting Facility
EDT Latitude Longitude Course Direction KTS MPH feet Rate Location/Type
Thu 10:49:07 AM 47.7656 -116.8486 130° Southeast 150 173 3,700  Level Salt Lake Center
Thu 10:50:09 AM 47.7356 -116.7956 130° Southeast 221 254 7,000 2,032 Climbing Salt Lake Center
Thu 10:51:11 AM 47.7228 -116.6886 100° East 242 278 7,900 1,452 Climbing Salt Lake Center
Thu 10:52:13 AM 47.7536 -116.5511 72° East 281 323 10,000 2,107 Climbing Salt Lake Center
Thu 10:53:22 AM 47.7856 -116.4294 69° East 320 368 12,500 2,093 Climbing Seattle Center
Thu 10:54:22 AM 47.8192 -116.2986 69° East 336 387 14,500 1,180 Climbing Seattle Center
Thu 10:55:24 AM 47.8547 -116.1575 69° East 363 418 14,900 195 Climbing Seattle Center
Thu 10:56:25 AM 47.8964 -115.9792 71° East 378 435 14,900 -49 Level Seattle Center
Thu 10:57:26 AM 47.9339 -115.8331 69° East 380 437 14,800 -541 Descending Seattle Center
Thu 10:58:27 AM 47.9683 -115.6917 70° East 371 427 13,800 -885 Descending Seattle Center
Thu 10:59:28 AM 47.9997 -115.5683 69° East 361 415 13,000 -393 Descending Seattle Center
Thu 11:00:29 AM 48.0356 -115.4242 70° East 368 423 13,000  Level Seattle Center
Thu 11:01:32 AM 48.0778 -115.2494 70° East 368 423 13,000  Level Salt Lake Center
Thu 11:02:34 AM 48.1119 -115.1039 71° East 371 427 13,000  Level Salt Lake Center
Thu 11:03:33 AM 48.1456 -114.9594 71° East 370 426 13,000 -150 Level Seattle Center
Thu 11:04:34 AM 48.1342 -114.8292 97° East 353 406 12,700 -614 Descending Seattle Center
Thu 11:05:40 AM 48.0850 -114.7353 128° Southeast 300 345 11,700 -1,172 Descending Salt Lake Center
Thu 11:06:42 AM 48.0517 -114.6047 111° Southeast 286 329 10,200 -823 Descending Salt Lake Center
Thu 11:07:44 AM 48.0822 -114.5056 65° Northeast 272 313 10,000 -145 Descending Salt Lake Center
Thu 11:08:46 AM 48.1272 -114.4408 44° Northeast 239 275 9,900 -919 Descending Salt Lake Center
Thu 11:09:48 AM 48.1706 -114.3989 33° Northeast 204 235 8,100 -1,909 Descending Salt Lake Center
Thu 11:11:42 AM 48.2383 -114.3308 34° Northeast 171 197 4,300 -2,000 Descending Seattle Center

Login

Don't have an account? Register now (free) for customized features, flight alerts, and more!